createdAt,value
2023-01-22T00:01:56.028Z,6.28
2023-01-22T00:07:58.335Z,6.20
2023-01-22T00:14:00.168Z,6.28
2023-01-22T00:20:02.223Z,6.25
2023-01-22T00:26:06.830Z,6.07
2023-01-22T00:32:08.912Z,6.45
2023-01-22T00:38:10.843Z,6.93
2023-01-22T00:44:14.373Z,6.78
2023-01-22T00:50:16.826Z,7.43
2023-01-22T00:56:19.919Z,6.47
2023-01-22T01:02:21.913Z,6.40
2023-01-22T01:08:24.943Z,6.60
2023-01-22T01:14:27.705Z,5.97
2023-01-22T01:20:29.715Z,5.75
2023-01-22T01:26:33.779Z,5.97
2023-01-22T01:32:36.962Z,5.80
2023-01-22T01:38:38.947Z,5.70
2023-01-22T01:44:42.634Z,5.68
2023-01-22T01:50:50.850Z,5.28
2023-01-22T01:56:57.568Z,4.80
2023-01-22T02:03:00.519Z,5.53
2023-01-22T02:09:03.908Z,4.75
2023-01-22T02:15:07.432Z,4.97
2023-01-22T02:21:45.302Z,4.80
2023-01-22T02:27:47.112Z,4.90
2023-01-22T02:33:50.413Z,4.65
2023-01-22T02:39:52.430Z,5.22
2023-01-22T02:45:54.555Z,4.80
2023-01-22T02:51:56.649Z,4.93
2023-01-22T02:57:59.694Z,4.13
2023-01-22T03:04:11.728Z,4.20
2023-01-22T03:10:21.519Z,3.90
2023-01-22T03:16:42.676Z,4.57
2023-01-22T03:22:44.641Z,4.10
2023-01-22T03:28:46.673Z,3.83
2023-01-22T03:34:48.918Z,3.67
2023-01-22T03:40:50.855Z,3.63
2023-01-22T03:46:54.409Z,3.72
2023-01-22T03:52:58.337Z,3.17
2023-01-22T03:59:00.471Z,3.50
2023-01-22T04:05:04.188Z,3.75
2023-01-22T04:11:06.806Z,3.40
2023-01-22T04:17:08.748Z,3.47
2023-01-22T04:23:25.854Z,3.20
2023-01-22T04:29:27.955Z,2.92
2023-01-22T04:35:30.313Z,2.50
2023-01-22T04:41:33.673Z,2.50
2023-01-22T04:47:40.645Z,2.30
2023-01-22T04:53:42.666Z,2.03
2023-01-22T04:59:45.096Z,1.80
2023-01-22T05:05:47.288Z,1.60
2023-01-22T05:11:49.285Z,1.50
2023-01-22T05:17:51.624Z,1.60
2023-01-22T05:23:53.744Z,1.80
2023-01-22T05:29:55.736Z,1.70
2023-01-22T05:36:36.069Z,1.50
2023-01-22T05:42:49.432Z,1.90
2023-01-22T05:48:51.454Z,1.80
2023-01-22T05:54:59.961Z,2.03
2023-01-22T06:01:04.010Z,2.08
2023-01-22T06:07:11.933Z,2.13
2023-01-22T06:13:13.821Z,1.70
2023-01-22T06:19:17.028Z,1.75
2023-01-22T06:25:28.118Z,1.90
2023-01-22T06:31:46.682Z,1.98
2023-01-22T06:37:52.429Z,2.20
2023-01-22T06:43:54.470Z,1.88
2023-01-22T06:49:56.503Z,2.08
2023-01-22T06:56:02.157Z,1.80
2023-01-22T07:02:05.498Z,1.88
2023-01-22T07:08:07.476Z,1.60
2023-01-22T07:14:09.378Z,1.65
2023-01-22T07:20:11.794Z,1.80
2023-01-22T07:26:14.653Z,2.20
2023-01-22T07:32:17.185Z,1.83
2023-01-22T07:38:19.031Z,1.75
2023-01-22T07:44:20.870Z,1.60
2023-01-22T07:50:24.770Z,2.00
2023-01-22T07:56:26.568Z,2.03
2023-01-22T08:02:28.519Z,2.00
2023-01-22T08:08:30.458Z,2.15
2023-01-22T08:14:32.282Z,2.33
2023-01-22T08:20:34.061Z,2.67
2023-01-22T08:26:35.932Z,2.72
2023-01-22T08:32:41.342Z,2.75
2023-01-22T08:38:43.304Z,3.20
2023-01-22T08:44:45.115Z,3.17
2023-01-22T08:50:47.023Z,3.42
2023-01-22T08:56:49.060Z,3.55
2023-01-22T09:02:51.177Z,4.30
2023-01-22T09:08:54.171Z,3.50
2023-01-22T09:14:55.948Z,3.55
2023-01-22T09:20:59.682Z,3.63
2023-01-22T09:27:01.662Z,4.43
2023-01-22T09:33:03.562Z,5.10
2023-01-22T09:39:05.425Z,4.55
2023-01-22T09:45:11.802Z,7.85
2023-01-22T09:51:15.676Z,5.40
2023-01-22T09:57:30.710Z,7.10
2023-01-22T10:03:40.809Z,5.05
2023-01-22T10:09:47.075Z,5.07
2023-01-22T10:15:52.194Z,4.30
2023-01-22T10:22:01.578Z,3.58
2023-01-22T10:28:04.551Z,4.50
2023-01-22T10:34:36.800Z,4.05
2023-01-22T10:40:41.133Z,4.07
2023-01-22T10:46:43.314Z,3.58
2023-01-22T10:52:51.947Z,3.67
2023-01-22T10:58:54.856Z,5.07
2023-01-22T11:05:29.099Z,4.78
2023-01-22T11:11:41.442Z,5.80
2023-01-22T11:17:57.567Z,4.88
2023-01-22T11:24:11.532Z,3.83
2023-01-22T11:30:26.042Z,4.03
2023-01-22T11:36:46.282Z,4.45
2023-01-22T11:43:23.559Z,4.47
2023-01-22T11:49:52.956Z,6.45
2023-01-22T11:56:23.590Z,5.78
2023-01-22T12:03:03.072Z,6.40
2023-01-22T12:09:08.262Z,7.30
2023-01-22T12:15:26.653Z,6.10
2023-01-22T12:21:43.314Z,5.25
2023-01-22T12:28:01.451Z,6.90
2023-01-22T12:34:10.484Z,5.00
2023-01-22T12:40:42.158Z,13.00
2023-01-22T12:47:05.880Z,6.15
2023-01-22T12:53:23.872Z,7.80
2023-01-22T12:59:33.272Z,10.10
2023-01-22T13:05:35.248Z,9.88
2023-01-22T13:11:39.519Z,7.38
2023-01-22T13:17:41.840Z,9.75
2023-01-22T13:23:46.353Z,10.60
2023-01-22T13:29:48.327Z,8.63
2023-01-22T13:35:50.161Z,9.77
2023-01-22T13:41:54.484Z,9.88
2023-01-22T13:47:59.818Z,10.60
2023-01-22T13:54:03.712Z,18.30
2023-01-22T14:00:06.669Z,11.75
2023-01-22T14:06:13.833Z,11.20
2023-01-22T14:12:19.508Z,10.68
2023-01-22T14:18:21.755Z,9.48
2023-01-22T14:24:23.819Z,12.27
2023-01-22T14:30:28.294Z,11.82
2023-01-22T14:36:31.394Z,13.15
2023-01-22T14:42:33.229Z,10.57
2023-01-22T14:48:35.137Z,10.60
2023-01-22T14:54:37.050Z,11.23
2023-01-22T15:00:39.491Z,9.23
2023-01-22T15:06:41.444Z,9.70
2023-01-22T15:12:48.573Z,8.98
2023-01-22T15:18:54.478Z,8.23
2023-01-22T15:24:56.325Z,9.73
2023-01-22T15:31:07.527Z,8.38
2023-01-22T15:37:13.658Z,9.18
2023-01-22T15:43:15.515Z,9.65
2023-01-22T15:49:18.203Z,12.60
2023-01-22T15:55:20.369Z,12.25
2023-01-22T16:01:22.995Z,12.65
2023-01-22T16:07:24.804Z,11.82
2023-01-22T16:13:26.616Z,10.85
2023-01-22T16:19:28.635Z,12.02
2023-01-22T16:25:30.493Z,10.75
2023-01-22T16:31:34.763Z,11.38
2023-01-22T16:37:37.432Z,11.68
2023-01-22T16:43:39.327Z,12.02
2023-01-22T16:49:41.249Z,11.93
2023-01-22T16:55:43.128Z,15.40
2023-01-22T17:01:45.223Z,12.20
2023-01-22T17:07:47.191Z,13.20
2023-01-22T17:13:49.819Z,24.13
2023-01-22T17:19:51.680Z,14.57
2023-01-22T17:25:53.608Z,8.93
2023-01-22T17:31:55.963Z,8.65
2023-01-22T17:37:57.881Z,14.02
2023-01-22T17:44:00.036Z,11.65
2023-01-22T17:50:02.032Z,8.68
2023-01-22T17:56:20.449Z,9.15
2023-01-22T18:02:22.437Z,8.93
2023-01-22T18:08:24.347Z,9.68
2023-01-22T18:14:30.237Z,12.85
2023-01-22T18:20:32.215Z,10.98
2023-01-22T18:26:35.034Z,10.85
2023-01-22T18:32:38.635Z,17.98
2023-01-22T18:38:41.106Z,11.45
2023-01-22T18:44:42.958Z,8.02
2023-01-22T18:50:52.725Z,9.70
2023-01-22T19:11:06.696Z,9.30
2023-01-22T19:17:08.544Z,9.73
2023-01-22T19:23:10.319Z,11.65
2023-01-22T19:29:14.875Z,13.00
2023-01-22T19:35:18.186Z,8.38
2023-01-22T19:41:20.169Z,7.57
2023-01-22T19:47:21.999Z,11.02
2023-01-22T19:53:23.748Z,9.10
2023-01-22T19:59:25.802Z,8.63
2023-01-22T20:05:27.551Z,7.57
2023-01-22T20:11:29.488Z,13.45
2023-01-22T20:17:32.558Z,11.50
2023-01-22T20:23:34.349Z,11.05
2023-01-22T20:29:38.466Z,9.90
2023-01-22T20:35:43.560Z,12.95
2023-01-22T20:41:46.006Z,13.45
2023-01-22T20:47:48.401Z,12.70
2023-01-22T20:53:51.906Z,10.18
2023-01-22T20:59:53.730Z,16.83
2023-01-22T21:05:55.438Z,15.48
2023-01-22T21:11:57.266Z,11.75
2023-01-22T21:17:59.237Z,15.45
2023-01-22T21:24:02.004Z,11.65
2023-01-22T21:30:04.717Z,14.68
2023-01-22T21:36:11.362Z,13.63
2023-01-22T21:42:39.577Z,13.70
2023-01-22T21:48:41.619Z,11.60
2023-01-22T21:55:07.333Z,12.07
2023-01-22T22:01:10.174Z,12.73
2023-01-22T22:07:13.223Z,12.95
2023-01-22T22:13:18.474Z,11.52
2023-01-22T22:19:24.274Z,10.10
2023-01-22T22:25:28.270Z,9.75
2023-01-22T22:31:30.707Z,9.70
2023-01-22T22:37:32.561Z,10.48
2023-01-22T22:43:46.111Z,11.45
2023-01-22T22:49:48.260Z,11.52
2023-01-22T22:55:50.170Z,13.05
2023-01-22T23:01:52.100Z,15.07
2023-01-22T23:07:53.889Z,13.35
2023-01-22T23:14:01.329Z,14.30
2023-01-22T23:20:03.679Z,13.27
2023-01-22T23:26:12.600Z,13.75
2023-01-22T23:32:29.893Z,12.35
2023-01-22T23:38:37.664Z,12.38
2023-01-22T23:44:42.649Z,10.10
2023-01-22T23:50:57.316Z,10.73
2023-01-22T23:57:05.026Z,11.05
